Home > Products > Valid Products > TAF

000
FTUS42 KFFC 260533
TAFCSG
TAF
KCSG 260533Z 2606/2706 13004KT P6SM BKN250
     FM260800 14004KT P6SM OVC006
     FM261500 15005KT P6SM OVC012
     FM261700 16007KT P6SM -SHRA OVC025
      TEMPO 2620/2624 3SM TSRA BR OVC015CB
     FM270000 15006KT P6SM SCT030 BKN045=



000
FTUS42 KFFC 260533
TAFFTY
TAF
KFTY 260533Z 2606/2706 08004KT P6SM OVC015
     FM260800 14004KT 3SM BR OVC006
     FM261500 15006KT P6SM OVC012
     FM261700 16007KT P6SM -SHRA OVC025
      TEMPO 2620/2624 3SM TSRA BR OVC015CB
     FM270000 15006KT P6SM SCT030 BKN045=



000
FTUS42 KFFC 260533
TAFATL
TAF
KATL 260533Z 2606/2712 13007KT P6SM SCT006 BKN015
     FM260800 14007KT P6SM OVC006
     FM261500 15007KT P6SM OVC012
     FM261700 16007KT P6SM -SHRA OVC025
      TEMPO 2620/2624 3SM TSRA BR OVC015CB
     FM270000 15006KT P6SM SCT030 BKN045
     FM270600 12005KT P6SM BKN009=



000
FTUS42 KFFC 260533
TAFAHN
TAF
KAHN 260533Z 2606/2706 VRB03KT P6SM VCSH BKN015
     FM260800 VRB03KT 3SM BR BKN007
     FM261500 13004KT 6SM BR OVC015
     FM261700 16007KT P6SM -SHRA OVC025
      TEMPO 2620/2624 3SM TSRA BR OVC015CB
     FM270000 15006KT P6SM SCT030 BKN045=



000
FTUS42 KFFC 260533
TAFRYY
TAF
KRYY 260533Z 2606/2706 13005KT 3SM BR OVC007
     FM260800 14004KT 3SM BR OVC006
     FM261500 15006KT P6SM OVC012
     FM261700 16007KT P6SM -SHRA OVC025
      TEMPO 2620/2624 3SM TSRA BR OVC015CB
     FM270000 15006KT P6SM SCT030 BKN045
      AMD NOT SKED TIL 261200=



000
FTUS42 KFFC 260533
TAFPDK
TAF
KPDK 260533Z 2606/2706 13004KT P6SM BKN015
     FM260800 14004KT 3SM BR OVC006
     FM261500 15006KT P6SM OVC012
     FM261700 16007KT P6SM -SHRA OVC025
      TEMPO 2620/2624 3SM TSRA BR OVC015CB
     FM270000 15006KT P6SM SCT030 BKN045=



000
FTUS42 KFFC 260533
TAFMCN
TAF
KMCN 260533Z 2606/2706 13004KT P6SM BKN250
     FM260800 14004KT 3SM BR OVC006
     FM261500 15005KT P6SM OVC012
     FM261700 16007KT P6SM -SHRA OVC025
      TEMPO 2620/2624 3SM TSRA BR OVC015CB
     FM270000 15006KT P6SM SCT030 BKN045=



000
FTUS42 KFFC 260331 AAB
TAFATL
TAF AMD
KATL 260331Z 2604/2706 13007KT P6SM VCSH SCT020 BKN100
     FM260600 13007KT P6SM VCSH OVC015
     FM260800 14007KT P6SM OVC007
     FM261500 15007KT P6SM OVC012
     FM261700 16007KT P6SM -SHRA OVC025
      TEMPO 2620/2624 3SM TSRA BR OVC015CB=



000
FTUS42 KFFC 260331 AAB
TAFATL
TAF AMD
KATL 260331Z 2604/2706 13007KT P6SM VCSH SCT020 BKN100
     FM260600 13007KT P6SM VCSH OVC015
     FM260800 14007KT P6SM OVC007
     FM261500 15007KT P6SM OVC012
     FM261700 16007KT P6SM -SHRA OVC025
      TEMPO 2620/2624 3SM TSRA BR OVC015CB=



000
FTUS42 KFFC 260249 AAA
TAFRYY
TAF AMD
KRYY 260249Z 2603/2624 13005KT P6SM VCSH BKN012 BKN040
     FM260800 14004KT P6SM OVC007
     FM261500 15005KT P6SM OVC012
     FM261700 16007KT P6SM -SHRA OVC025
      TEMPO 2620/2624 3SM TSRA BR OVC015CB
      AMD NOT SKED 2604/2612=



000
FTUS42 KFFC 260249 AAA
TAFRYY
TAF AMD
KRYY 260249Z 2603/2624 13005KT P6SM VCSH BKN012 BKN040
     FM260800 14004KT P6SM OVC007
     FM261500 15005KT P6SM OVC012
     FM261700 16007KT P6SM -SHRA OVC025
      TEMPO 2620/2624 3SM TSRA BR OVC015CB
      AMD NOT SKED 2604/2612=



000
FTUS42 KFFC 260133 AAA
TAFATL
TAF AMD
KATL 260133Z 2602/2706 15009KT P6SM -RA BKN035
      TEMPO 2602/2603 BKN015
     FM260300 13007KT P6SM VCSH BKN025
     FM260500 13007KT P6SM VCSH OVC015
     FM260800 14007KT P6SM OVC007
     FM261500 15007KT P6SM OVC012
     FM261700 16007KT P6SM -SHRA OVC025
      TEMPO 2620/2624 3SM TSRA BR OVC015CB=



000
FTUS42 KFFC 252321
TAFCSG
TAF
KCSG 252321Z 2600/2624 15007KT 6SM -SHRA SCT035 BKN080
      TEMPO 2600/2602 VRB12G18KT 3SM TSRA BR BKN025CB
     FM260200 13005KT P6SM VCSH SCT025 BKN040
     FM260500 13004KT P6SM VCSH OVC018
     FM260800 14004KT P6SM OVC007
     FM261500 15005KT P6SM OVC012
     FM261700 16007KT P6SM -SHRA OVC025
      TEMPO 2620/2624 3SM TSRA BR OVC015CB=



000
FTUS42 KFFC 252321
TAFMCN
TAF
KMCN 252321Z 2600/2624 15007KT 6SM -SHRA SCT035 BKN060
      TEMPO 2600/2603 VRB12G18KT 3SM TSRA BR BKN025CB
     FM260300 13005KT P6SM VCSH SCT025 BKN040
     FM260500 13004KT P6SM VCSH OVC018
     FM260800 14004KT P6SM OVC007
     FM261500 15005KT P6SM OVC012
     FM261700 16007KT P6SM -SHRA OVC025
      TEMPO 2620/2624 3SM TSRA BR OVC015CB=



000
FTUS42 KFFC 252321
TAFFTY
TAF
KFTY 252321Z 2600/2624 15007KT 6SM -SHRA BKN035
      TEMPO 2600/2603 VRB12G18KT 3SM TSRA BR BKN025CB
     FM260300 13005KT P6SM VCSH SCT025 BKN040
     FM260500 13004KT P6SM VCSH OVC018
     FM260800 14004KT P6SM OVC007
     FM261500 15005KT P6SM OVC012
     FM261700 16007KT P6SM -SHRA OVC025
      TEMPO 2620/2624 3SM TSRA BR OVC015CB=



000
FTUS42 KFFC 252321
TAFPDK
TAF
KPDK 252321Z 2600/2624 15007KT 6SM -SHRA BKN035
      TEMPO 2600/2603 VRB12G18KT 3SM TSRA BR BKN025CB
     FM260300 13005KT P6SM VCSH SCT025 BKN040
     FM260500 13004KT P6SM VCSH OVC018
     FM260800 14004KT P6SM OVC007
     FM261500 15005KT P6SM OVC012
     FM261700 16007KT P6SM -SHRA OVC025
      TEMPO 2620/2624 3SM TSRA BR OVC015CB=



000
FTUS42 KFFC 252321
TAFRYY
TAF
KRYY 252321Z 2600/2624 15007KT 6SM -SHRA BKN035
      TEMPO 2600/2603 VRB12G18KT 3SM TSRA BR BKN025CB
     FM260300 13005KT P6SM VCSH SCT025 BKN040
     FM260500 13004KT P6SM VCSH OVC018
     FM260800 14004KT P6SM OVC007
     FM261500 15005KT P6SM OVC012
     FM261700 16007KT P6SM -SHRA OVC025
      TEMPO 2620/2624 3SM TSRA BR OVC015CB
      AMD NOT SKED 2604/2612=



000
FTUS42 KFFC 252321
TAFATL
TAF
KATL 252321Z 2600/2706 15009KT 6SM -SHRA BKN035
      TEMPO 2600/2603 VRB12G22KT 3SM TSRA BR BKN025CB
     FM260300 13007KT P6SM VCSH SCT025 BKN040
     FM260500 13007KT P6SM VCSH OVC018
     FM260800 14007KT P6SM OVC007
     FM261500 15007KT P6SM OVC012
     FM261700 16007KT P6SM -SHRA OVC025
      TEMPO 2620/2624 3SM TSRA BR OVC015CB=



000
FTUS42 KFFC 252321
TAFAHN
TAF
KAHN 252321Z 2600/2624 15007KT P6SM VCSH SCT040 BKN080
     FM260300 13005KT P6SM VCSH SCT025 BKN040
     FM260600 12005KT P6SM VCSH BKN015
     FM260800 12004KT 4SM BR BKN007
     FM261500 13004KT 6SM BR OVC015
     FM261700 16007KT P6SM -SHRA OVC025
      TEMPO 2620/2624 3SM TSRA BR OVC015CB=



000
FTUS42 KFFC 252155 AAB
TAFATL
TAF AMD
KATL 252155Z 2522/2624 15009KT 6SM -SHRA BKN035
      TEMPO 2522/2602 VRB12G18KT 3SM TSRA BR BKN025CB
     FM260200 13007KT P6SM VCSH SCT025 BKN040
     FM260600 13007KT P6SM VCSH OVC018
     FM260800 14007KT P6SM OVC007
     FM261300 15007KT P6SM OVC012
     FM261700 16007KT P6SM -SHRA OVC025
      TEMPO 2620/2624 3SM TSRA BR OVC015CB=



000
FTUS42 KFFC 252111 AAA
TAFMCN
TAF AMD
KMCN 252111Z 2521/2618 15006KT P6SM VCSH BKN035
      TEMPO 2521/2523 VRB15G25KT 3SM TSRA BR BKN025CB
     FM260100 12007KT P6SM VCSH SCT025 BKN040
     FM260600 11004KT P6SM BKN015
     FM260800 12004KT 4SM BR BKN007
     FM261400 11004KT P6SM BKN015=



000
FTUS42 KFFC 251939 AAA
TAFATL
TAF AMD
KATL 251939Z 2520/2624 15009KT 6SM -SHRA BKN035
      TEMPO 2522/2602 VRB12G18KT 3SM TSRA BR BKN025CB
     FM260200 13007KT P6SM VCSH SCT025 BKN040
     FM260600 13007KT P6SM VCSH OVC018
     FM260800 14007KT P6SM OVC007
     FM261300 15007KT P6SM OVC012
     FM261700 16007KT P6SM -SHRA OVC025
      TEMPO 2620/2624 3SM TSRA BR OVC015CB=



000
FTUS42 KFFC 251731
TAFATL
TAF
KATL 251731Z 2518/2624 13009KT P6SM VCSH BKN028
     FM252000 13009KT 6SM -SHRA BKN035
      TEMPO 2522/2524 VRB12G18KT 3SM TSRA BR BKN025CB
     FM260100 13007KT P6SM VCSH SCT025 BKN040
     FM260600 13007KT P6SM VCSH OVC018
     FM260800 14007KT P6SM OVC007
     FM261300 15007KT P6SM OVC012
     FM261700 16007KT P6SM -SHRA OVC025
      TEMPO 2620/2624 3SM TSRA BR OVC015CB=



000
FTUS42 KFFC 251731
TAFRYY
TAF
KRYY 251731Z 2518/2618 14010KT P6SM VCSH BKN035
     FM252000 13010KT 6SM -SHRA BKN035
      TEMPO 2522/2524 VRB12G18KT 3SM TSRA BR BKN025CB
     FM260100 13006KT P6SM VCSH SCT025 BKN040
     FM260600 13003KT P6SM VCSH OVC018
     FM260800 14003KT P6SM OVC007
     FM261300 14004KT P6SM OVC012
     FM261600 15004KT P6SM -SHRA OVC025=



000
FTUS42 KFFC 251731
TAFCSG
TAF
KCSG 251731Z 2518/2618 15011KT P6SM VCSH SCT035 BKN080
      TEMPO 2518/2522 3SM TSRA BR BKN025CB
     FM260100 12007KT P6SM VCSH SCT025 BKN045
     FM260600 13004KT P6SM BKN015
     FM260800 15006KT P6SM BKN009
     FM261400 14005KT P6SM BKN015=



000
FTUS42 KFFC 251731
TAFAHN
TAF
KAHN 251731Z 2518/2618 11006KT P6SM BKN045
     FM252100 12006KT P6SM VCSH BKN045
      TEMPO 2522/2524 3SM -TSRA BKN025CB
     FM260100 12005KT P6SM VCSH SCT025 BKN040
     FM260600 12005KT P6SM VCSH BKN015
     FM260800 12004KT 4SM BR BKN007
     FM261400 13004KT 6SM BR OVC015=



000
FTUS42 KFFC 251731
TAFPDK
TAF
KPDK 251731Z 2518/2618 13009KT P6SM VCSH BKN035
     FM252000 13009KT 6SM -SHRA BKN035
      TEMPO 2522/2524 VRB12G18KT 3SM TSRA BR BKN025CB
     FM260100 13006KT P6SM VCSH SCT025 BKN040
     FM260600 12004KT P6SM VCSH OVC018
     FM260800 15003KT P6SM OVC007
     FM261300 16004KT P6SM OVC012
     FM261600 15004KT P6SM -SHRA OVC025=



000
FTUS42 KFFC 251731
TAFMCN
TAF
KMCN 251731Z 2518/2618 15006KT P6SM VCSH BKN035
      TEMPO 2518/2522 3SM TSRA BR BKN025CB
     FM260100 12007KT P6SM VCSH SCT025 BKN040
     FM260600 11004KT P6SM BKN015
     FM260800 12004KT 4SM BR BKN007
     FM261400 11004KT P6SM BKN015=



000
FTUS42 KFFC 251731
TAFFTY
TAF
KFTY 251731Z 2518/2618 13009KT P6SM VCSH BKN035
     FM252000 13007KT 6SM -SHRA BKN035
      TEMPO 2522/2524 VRB12G18KT 3SM TSRA BR BKN025CB
     FM260100 11006KT P6SM VCSH SCT025 BKN040
     FM260600 15003KT P6SM VCSH OVC018
     FM260800 16003KT P6SM OVC007
     FM261300 14004KT P6SM OVC012
     FM261600 15004KT P6SM -SHRA OVC025=



000
FTUS42 KFFC 251731
TAFMCN
TAF
KMCN 251731Z 2518/2618 15006KT P6SM VCSH BKN035
      TEMPO 2518/2522 3SM TSRA BR BKN025CB
     FM260100 12007KT P6SM VCSH SCT025 BKN040
     FM260600 11004KT P6SM BKN015
     FM260800 12004KT 4SM BR BKN007
     FM261400 11004KT P6SM BKN015=



000
FTUS42 KFFC 251731
TAFPDK
TAF
KPDK 251731Z 2518/2618 13009KT P6SM VCSH BKN035
     FM252000 13009KT 6SM -SHRA BKN035
      TEMPO 2522/2524 VRB12G18KT 3SM TSRA BR BKN025CB
     FM260100 13006KT P6SM VCSH SCT025 BKN040
     FM260600 12004KT P6SM VCSH OVC018
     FM260800 15003KT P6SM OVC007
     FM261300 16004KT P6SM OVC012
     FM261600 15004KT P6SM -SHRA OVC025=



000
FTUS42 KFFC 251731
TAFATL
TAF
KATL 251731Z 2518/2624 13009KT P6SM VCSH BKN028
     FM252000 13009KT 6SM -SHRA BKN035
      TEMPO 2522/2524 VRB12G18KT 3SM TSRA BR BKN025CB
     FM260100 13007KT P6SM VCSH SCT025 BKN040
     FM260600 13007KT P6SM VCSH OVC018
     FM260800 14007KT P6SM OVC007
     FM261300 15007KT P6SM OVC012
     FM261700 16007KT P6SM -SHRA OVC025
      TEMPO 2620/2624 3SM TSRA BR OVC015CB=



000
FTUS42 KFFC 251731
TAFRYY
TAF
KRYY 251731Z 2518/2618 14010KT P6SM VCSH BKN035
     FM252000 13010KT 6SM -SHRA BKN035
      TEMPO 2522/2524 VRB12G18KT 3SM TSRA BR BKN025CB
     FM260100 13006KT P6SM VCSH SCT025 BKN040
     FM260600 13003KT P6SM VCSH OVC018
     FM260800 14003KT P6SM OVC007
     FM261300 14004KT P6SM OVC012
     FM261600 15004KT P6SM -SHRA OVC025=



000
FTUS42 KFFC 251731
TAFCSG
TAF
KCSG 251731Z 2518/2618 15011KT P6SM VCSH SCT035 BKN080
      TEMPO 2518/2522 3SM TSRA BR BKN025CB
     FM260100 12007KT P6SM VCSH SCT025 BKN045
     FM260600 13004KT P6SM BKN015
     FM260800 15006KT P6SM BKN009
     FM261400 14005KT P6SM BKN015=



000
FTUS42 KFFC 251731
TAFAHN
TAF
KAHN 251731Z 2518/2618 11006KT P6SM BKN045
     FM252100 12006KT P6SM VCSH BKN045
      TEMPO 2522/2524 3SM -TSRA BKN025CB
     FM260100 12005KT P6SM VCSH SCT025 BKN040
     FM260600 12005KT P6SM VCSH BKN015
     FM260800 12004KT 4SM BR BKN007
     FM261400 13004KT 6SM BR OVC015=



000
FTUS42 KFFC 251731
TAFFTY
TAF
KFTY 251731Z 2518/2618 13009KT P6SM VCSH BKN035
     FM252000 13007KT 6SM -SHRA BKN035
      TEMPO 2522/2524 VRB12G18KT 3SM TSRA BR BKN025CB
     FM260100 11006KT P6SM VCSH SCT025 BKN040
     FM260600 15003KT P6SM VCSH OVC018
     FM260800 16003KT P6SM OVC007
     FM261300 14004KT P6SM OVC012
     FM261600 15004KT P6SM -SHRA OVC025=



000
FTUS42 KFFC 251543 AAB
TAFAHN
TAF AMD
KAHN 251543Z 2516/2612 11005KT P6SM BKN025
     FM251700 13006KT P6SM VCSH BKN035
     FM252100 14009KT 6SM -SHRA BKN035
      TEMPO 2522/2524 3SM -TSRA BKN012CB
     FM260100 14007KT P6SM SCT025 BKN040
     FM260800 15006KT P6SM BKN009=



000
FTUS42 KFFC 251542 AAA
TAFFTY
TAF AMD
KFTY 251542Z 2516/2612 13007KT P6SM BKN025
     FM251700 13007KT P6SM VCSH BKN035
     FM252100 14009KT 6SM -SHRA BKN035
      TEMPO 2522/2524 3SM -TSRA BKN012CB
     FM260100 14007KT P6SM SCT025 BKN040
     FM260800 15006KT P6SM BKN009=



000
FTUS42 KFFC 251542 AAA
TAFFTY
TAF AMD
KFTY 251542Z 2516/2612 13007KT P6SM BKN025
     FM251700 13007KT P6SM VCSH BKN035
     FM252100 14009KT 6SM -SHRA BKN035
      TEMPO 2522/2524 3SM -TSRA BKN012CB
     FM260100 14007KT P6SM SCT025 BKN040
     FM260800 15006KT P6SM BKN009=



000
FTUS42 KFFC 251541 AAC
TAFATL
TAF AMD
KATL 251541Z 2516/2618 13009KT P6SM BKN025
     FM251700 13009KT P6SM VCSH BKN035
     FM252100 14009KT 6SM -SHRA BKN035
      TEMPO 2522/2524 3SM -TSRA BKN012CB
     FM260100 14007KT P6SM SCT025 BKN040
     FM260800 15006KT P6SM BKN009
     FM261500 16008KT P6SM BKN030=



000
FTUS42 KFFC 251505 AAB
TAFATL
TAF AMD
KATL 251505Z 2515/2618 13009KT P6SM BKN015 BKN045
     FM251600 13009KT P6SM BKN025
     FM251800 13009KT P6SM VCSH BKN035
     FM252100 14009KT 6SM -SHRA BKN035
      TEMPO 2522/2524 3SM -TSRA BKN012CB
     FM260100 14007KT P6SM SCT025 BKN040
     FM260800 15006KT P6SM BKN009
     FM261500 16008KT P6SM BKN030=



000
FTUS42 KFFC 251505 AAB
TAFATL
TAF AMD
KATL 251505Z 2515/2618 13009KT P6SM BKN015 BKN045
     FM251600 13009KT P6SM BKN025
     FM251800 13009KT P6SM VCSH BKN035
     FM252100 14009KT 6SM -SHRA BKN035
      TEMPO 2522/2524 3SM -TSRA BKN012CB
     FM260100 14007KT P6SM SCT025 BKN040
     FM260800 15006KT P6SM BKN009
     FM261500 16008KT P6SM BKN030=



000
FTUS42 KFFC 251417 AAA
TAFCSG
TAF AMD
KCSG 251417Z 2514/2612 11006KT P6SM SCT025 BKN070
      TEMPO 2514/2516 BKN025
     FM251600 13005KT P6SM VCSH BKN045
     FM252100 14009KT 6SM -SHRA BKN045
      TEMPO 2521/2524 3SM -TSRA BKN012CB
     FM260100 14007KT P6SM SCT025 BKN040
     FM260800 15006KT P6SM BKN009=



000
FTUS42 KFFC 251416 AAA
TAFAHN
TAF AMD
KAHN 251416Z 2514/2612 11005KT P6SM SCT025 BKN045
      TEMPO 2514/2516 BKN025
     FM251600 13006KT P6SM BKN045
     FM252100 14009KT 6SM -SHRA BKN035
      TEMPO 2522/2524 3SM -TSRA BKN012CB
     FM260100 14007KT P6SM SCT025 BKN040
     FM260800 15006KT P6SM BKN009=



000
FTUS42 KFFC 251400 AAA
TAFATL
TAF AMD
KATL 251400Z 2514/2618 12009KT P6SM BKN015 BKN025
     FM251500 13007KT P6SM BKN025
     FM251800 13007KT P6SM VCSH BKN035
     FM252100 14009KT 6SM -SHRA BKN035
      TEMPO 2522/2524 3SM -TSRA BKN012CB
     FM260100 14007KT P6SM SCT025 BKN040
     FM260800 15006KT P6SM BKN009
     FM261500 16008KT P6SM BKN030=



000
FTUS42 KFFC 251136
TAFPDK
TAF
KPDK 251136Z 2512/2612 11004KT 5SM HZ BKN015 BKN025
     FM251500 13007KT P6SM BKN025
     FM251800 13007KT P6SM VCSH BKN035
     FM252100 14009KT 6SM -SHRA BKN035 PROB30 2521/2601 3SM -TSRA
      BKN012CB
     FM260100 14007KT P6SM SCT025 BKN040
     FM260800 15006KT P6SM BKN009=



000
FTUS42 KFFC 251136
TAFRYY
TAF
KRYY 251136Z 2512/2612 11006KT P6SM BKN015
     FM251500 13007KT P6SM BKN025
     FM251800 13007KT P6SM VCSH BKN035
     FM252100 14009KT 6SM -SHRA BKN035 PROB30 2521/2601 3SM -TSRA
      BKN012CB
     FM260100 14007KT P6SM SCT025 BKN040
     FM260800 15006KT P6SM BKN009=



000
FTUS42 KFFC 251136
TAFAHN
TAF
KAHN 251136Z 2512/2612 09005KT P6SM BKN025 BKN050
     FM251500 13006KT P6SM BKN035
     FM252100 14009KT 6SM -SHRA BKN035 PROB30 2521/2601 3SM -TSRA
      BKN012CB
     FM260100 14007KT P6SM SCT025 BKN040
     FM260800 15006KT P6SM BKN009=



000
FTUS42 KFFC 251136
TAFMCN
TAF
KMCN 251136Z 2512/2612 09005KT P6SM BKN015 BKN025
     FM251500 12006KT P6SM BKN025
     FM252100 14009KT 6SM -SHRA BKN035 PROB30 2521/2601 3SM -TSRA
      BKN012CB
     FM260100 14007KT P6SM SCT025 BKN040
     FM260800 15006KT P6SM BKN009=



000
FTUS42 KFFC 251136
TAFATL
TAF
KATL 251136Z 2512/2618 12009KT P6SM BKN012 BKN025
     FM251500 13007KT P6SM BKN025
     FM251800 13007KT P6SM VCSH BKN035
     FM252100 14009KT 6SM -SHRA BKN035 PROB30 2521/2601 3SM -TSRA
      BKN012CB
     FM260100 14007KT P6SM SCT025 BKN040
     FM260800 15006KT P6SM BKN009
     FM261500 16008KT P6SM BKN030=



000
FTUS42 KFFC 251136
TAFCSG
TAF
KCSG 251136Z 2512/2612 11006KT P6SM BKN012
     FM251500 13005KT P6SM BKN025
     FM252100 14009KT 6SM -SHRA BKN035 PROB30 2521/2601 3SM -TSRA
      BKN012CB
     FM260100 14007KT P6SM SCT025 BKN040
     FM260800 15006KT P6SM BKN009=



000
FTUS42 KFFC 251136
TAFFTY
TAF
KFTY 251136Z 2512/2612 11004KT P6SM BKN015 BKN025
     FM251500 13007KT P6SM BKN025
     FM251800 13007KT P6SM VCSH BKN035
     FM252100 14009KT 6SM -SHRA BKN035 PROB30 2521/2601 3SM -TSRA
      BKN012CB
     FM260100 14007KT P6SM SCT025 BKN040
     FM260800 15006KT P6SM BKN009=



000
FTUS42 KFFC 251056 AAA
TAFAHN
TAF AMD
KAHN 251056Z 2511/2606 13005KT P6SM BKN025
     FM251200 09005KT P6SM BKN015
     FM251500 13006KT P6SM VCSH BKN025
     FM252000 13005KT P6SM VCSH BKN035 PROB30 2520/2524 VRB15G25KT
      3SM TSRA BR BKN025CB=



000
FTUS42 KFFC 251001 AAB
TAFATL
TAF AMD
KATL 251001Z 2510/2612 12009KT P6SM BKN012 BKN025
     FM251400 12008KT P6SM OVC015
     FM251600 13007KT P6SM VCSH BKN025
     FM252000 13007KT P6SM VCSH BKN035 PROB30 2520/2602 VRB15G25KT
      3SM TSRA BR BKN025CB
     FM260700 14007KT P6SM BKN009=



000
FTUS42 KFFC 250922 AAA
TAFCSG
TAF AMD
KCSG 250922Z 2509/2606 10007KT P6SM BKN015
     FM251100 11006KT P6SM BKN009
     FM251500 14008KT P6SM OVC016
     FM251700 13005KT P6SM VCSH BKN025
     FM252000 13005KT P6SM VCSH BKN035 PROB30 2520/2524 VRB15G25KT
      3SM TSRA BR BKN025CB=



000
FTUS42 KFFC 250759 AAA
TAFMCN
TAF AMD
KMCN 250759Z 2508/2606 13006KT P6SM BKN020
     FM251100 09005KT 4SM BR BKN007
     FM251500 12006KT P6SM OVC015
     FM251700 13006KT P6SM VCSH BKN025
     FM252000 13005KT P6SM VCTS BKN035CB=



000
FTUS42 KFFC 250758 AAA
TAFATL
TAF AMD
KATL 250758Z 2508/2612 12009KT P6SM BKN012
     FM251100 11009KT P6SM BKN007
     FM251500 12008KT P6SM OVC015
     FM251700 13007KT P6SM VCSH BKN025
     FM252000 13007KT P6SM VCSH BKN035 PROB30 2520/2602 VRB15G25KT
      3SM TSRA BR BKN025CB
     FM260700 14007KT P6SM BKN009=



000
FTUS42 KFFC 250758 AAA
TAFATL
TAF AMD
KATL 250758Z 2508/2612 12009KT P6SM BKN012
     FM251100 11009KT P6SM BKN007
     FM251500 12008KT P6SM OVC015
     FM251700 13007KT P6SM VCSH BKN025
     FM252000 13007KT P6SM VCSH BKN035 PROB30 2520/2602 VRB15G25KT
      3SM TSRA BR BKN025CB
     FM260700 14007KT P6SM BKN009=



000
FTUS42 KFFC 250532
TAFFTY
TAF
KFTY 250532Z 2506/2606 12006KT P6SM SCT250
     FM250800 12004KT P6SM BKN012
     FM251100 11004KT P6SM BKN007
     FM251500 12006KT P6SM OVC015
     FM251700 13006KT P6SM VCSH BKN025
     FM252000 13005KT P6SM VCSH BKN035 PROB30 2520/2524 VRB15G25KT
      3SM TSRA BR BKN025CB=



000
FTUS42 KFFC 250532
TAFATL
TAF
KATL 250532Z 2506/2612 12009KT P6SM SCT250
     FM250800 12009KT P6SM BKN012
     FM251100 11009KT P6SM BKN007
     FM251500 12008KT P6SM OVC015
     FM251700 13007KT P6SM VCSH BKN025
     FM252000 13007KT P6SM VCSH BKN035 PROB30 2520/2602 VRB15G25KT
      3SM TSRA BR BKN025CB
     FM260700 14007KT P6SM BKN009=



000
FTUS42 KFFC 250532
TAFAHN
TAF
KAHN 250532Z 2506/2606 13005KT P6SM FEW080
     FM251000 09005KT P6SM BKN007
     FM251500 12006KT P6SM OVC015
     FM251700 13006KT P6SM VCSH BKN025
     FM252000 13005KT P6SM VCSH BKN035 PROB30 2520/2524 VRB15G25KT
      3SM TSRA BR BKN025CB=



000
FTUS42 KFFC 250532
TAFRYY
TAF
KRYY 250532Z 2506/2606 12004KT P6SM SCT250
     FM250800 12004KT P6SM BKN012
     FM251100 11004KT P6SM BKN007
     FM251500 12006KT P6SM OVC015
     FM251700 13006KT P6SM VCSH BKN025
     FM252000 13005KT P6SM VCSH BKN035 PROB30 2520/2524 VRB15G25KT
      3SM TSRA BR BKN025CB
      AMD NOT SKED TIL 251200=



000
FTUS42 KFFC 250532
TAFPDK
TAF
KPDK 250532Z 2506/2606 12004KT P6SM SCT050
     FM250800 12004KT P6SM BKN012
     FM251100 11004KT P6SM BKN007
     FM251500 12006KT P6SM OVC015
     FM251700 13006KT P6SM VCSH BKN025
     FM252000 13005KT P6SM VCSH BKN035 PROB30 2520/2524 VRB15G25KT
      3SM TSRA BR BKN025CB=



000
FTUS42 KFFC 250532
TAFCSG
TAF
KCSG 250532Z 2506/2606 12010KT P6SM FEW060
     FM250900 11006KT P6SM BKN007
     FM251500 14008KT P6SM OVC016
     FM251700 13005KT P6SM VCSH BKN025
     FM252000 13005KT P6SM VCSH BKN035 PROB30 2520/2524 VRB15G25KT
      3SM TSRA BR BKN025CB=



000
FTUS42 KFFC 250532
TAFMCN
TAF
KMCN 250532Z 2506/2606 13006KT P6SM FEW080
     FM250900 09005KT P6SM BKN007
     FM251500 12006KT P6SM OVC015
     FM251700 13006KT P6SM VCSH BKN025
     FM252000 13005KT P6SM VCTS BKN035CB=



000
FTUS42 KFFC 250132 AAA
TAFATL
TAF AMD
KATL 250132Z 2502/2606 12009KT P6SM SCT250
     FM250800 12009KT P6SM BKN012
     FM251100 11009KT P6SM BKN007
     FM251500 12008KT P6SM OVC015
     FM251700 13007KT P6SM VCSH BKN025
     FM252000 13007KT P6SM VCSH BKN035 PROB30 2520/2602 VRB15G25KT
      3SM TSRA BR BKN025CB=



000
FTUS42 KFFC 242320
TAFCSG
TAF
KCSG 242320Z 2500/2524 12010KT P6SM FEW050
     FM250700 12007KT P6SM BKN025
     FM250900 11006KT P6SM BKN007
     FM251500 14008KT P6SM OVC016
     FM251700 13005KT P6SM VCSH BKN025
     FM252000 13005KT P6SM VCSH BKN035 PROB30 2520/2524 VRB15G25KT
      3SM TSRA BR BKN025CB=



000
FTUS42 KFFC 242320
TAFFTY
TAF
KFTY 242320Z 2500/2524 12004KT P6SM SCT050
     FM250800 12004KT P6SM BKN012
     FM251100 11004KT P6SM BKN007
     FM251500 12005KT P6SM OVC015
     FM251700 13005KT P6SM VCSH BKN025
     FM252000 13005KT P6SM VCSH BKN035 PROB30 2520/2524 VRB15G25KT
      3SM TSRA BR BKN025CB=



000
FTUS42 KFFC 242320
TAFATL
TAF
KATL 242320Z 2500/2606 12009KT P6SM SCT050
     FM250800 12009KT P6SM BKN012
     FM251100 11009KT P6SM BKN007
     FM251500 12008KT P6SM OVC015
     FM251700 13007KT P6SM VCSH BKN025
     FM252000 13007KT P6SM VCSH BKN035 PROB30 2520/2602 VRB15G25KT
      3SM TSRA BR BKN025CB=



000
FTUS42 KFFC 242320
TAFMCN
TAF
KMCN 242320Z 2500/2524 13005KT P6SM FEW080
     FM251000 09005KT P6SM BKN007
     FM251500 12005KT P6SM OVC015
     FM251700 13005KT P6SM VCSH BKN025
     FM252000 13005KT P6SM VCTS BKN035CB=



000
FTUS42 KFFC 242320
TAFAHN
TAF
KAHN 242320Z 2500/2524 13005KT P6SM FEW080
     FM251000 09005KT P6SM BKN007
     FM251500 12005KT P6SM OVC015
     FM251700 13005KT P6SM VCSH BKN025
     FM252000 13005KT P6SM VCSH BKN035 PROB30 2520/2524 VRB15G25KT
      3SM TSRA BR BKN025CB=



000
FTUS42 KFFC 242320
TAFPDK
TAF
KPDK 242320Z 2500/2524 12004KT P6SM SCT050
     FM250800 12004KT P6SM BKN012
     FM251100 11004KT P6SM BKN007
     FM251500 12005KT P6SM OVC015
     FM251700 13005KT P6SM VCSH BKN025
     FM252000 13005KT P6SM VCSH BKN035 PROB30 2520/2524 VRB15G25KT
      3SM TSRA BR BKN025CB=



000
FTUS42 KFFC 242320
TAFAHN
TAF
KAHN 242320Z 2500/2524 13005KT P6SM FEW080
     FM251000 09005KT P6SM BKN007
     FM251500 12005KT P6SM OVC015
     FM251700 13005KT P6SM VCSH BKN025
     FM252000 13005KT P6SM VCSH BKN035 PROB30 2520/2524 VRB15G25KT
      3SM TSRA BR BKN025CB=



000
FTUS42 KFFC 242320
TAFATL
TAF
KATL 242320Z 2500/2606 12009KT P6SM SCT050
     FM250800 12009KT P6SM BKN012
     FM251100 11009KT P6SM BKN007
     FM251500 12008KT P6SM OVC015
     FM251700 13007KT P6SM VCSH BKN025
     FM252000 13007KT P6SM VCSH BKN035 PROB30 2520/2602 VRB15G25KT
      3SM TSRA BR BKN025CB=



000
FTUS42 KFFC 242320
TAFRYY
TAF
KRYY 242320Z 2500/2524 12004KT P6SM SCT050
     FM250800 12004KT P6SM BKN012
     FM251100 11004KT P6SM BKN007
     FM251500 12005KT P6SM OVC015
     FM251700 13005KT P6SM VCSH BKN025
     FM252000 13005KT P6SM VCSH BKN035 PROB30 2520/2524 VRB15G25KT
      3SM TSRA BR BKN025CB
      AMD NOT SKED 2504/2512=



000
FTUS42 KFFC 242320
TAFRYY
TAF
KRYY 242320Z 2500/2524 12004KT P6SM SCT050
     FM250800 12004KT P6SM BKN012
     FM251100 11004KT P6SM BKN007
     FM251500 12005KT P6SM OVC015
     FM251700 13005KT P6SM VCSH BKN025
     FM252000 13005KT P6SM VCSH BKN035 PROB30 2520/2524 VRB15G25KT
      3SM TSRA BR BKN025CB
      AMD NOT SKED 2504/2512=



000
FTUS42 KFFC 242320
TAFCSG
TAF
KCSG 242320Z 2500/2524 12010KT P6SM FEW050
     FM250700 12007KT P6SM BKN025
     FM250900 11006KT P6SM BKN007
     FM251500 14008KT P6SM OVC016
     FM251700 13005KT P6SM VCSH BKN025
     FM252000 13005KT P6SM VCSH BKN035 PROB30 2520/2524 VRB15G25KT
      3SM TSRA BR BKN025CB=



000
FTUS42 KFFC 242320
TAFPDK
TAF
KPDK 242320Z 2500/2524 12004KT P6SM SCT050
     FM250800 12004KT P6SM BKN012
     FM251100 11004KT P6SM BKN007
     FM251500 12005KT P6SM OVC015
     FM251700 13005KT P6SM VCSH BKN025
     FM252000 13005KT P6SM VCSH BKN035 PROB30 2520/2524 VRB15G25KT
      3SM TSRA BR BKN025CB=



000
FTUS42 KFFC 242320
TAFMCN
TAF
KMCN 242320Z 2500/2524 13005KT P6SM FEW080
     FM251000 09005KT P6SM BKN007
     FM251500 12005KT P6SM OVC015
     FM251700 13005KT P6SM VCSH BKN025
     FM252000 13005KT P6SM VCTS BKN035CB=



000
FTUS42 KFFC 242320
TAFFTY
TAF
KFTY 242320Z 2500/2524 12004KT P6SM SCT050
     FM250800 12004KT P6SM BKN012
     FM251100 11004KT P6SM BKN007
     FM251500 12005KT P6SM OVC015
     FM251700 13005KT P6SM VCSH BKN025
     FM252000 13005KT P6SM VCSH BKN035 PROB30 2520/2524 VRB15G25KT
      3SM TSRA BR BKN025CB=



000
FTUS42 KFFC 242141 AAB
TAFATL
TAF AMD
KATL 242141Z 2422/2524 14010G18KT P6SM SCT050
     FM250000 11010KT P6SM SCT060
     FM250800 12010KT P6SM BKN012
     FM251100 11009KT P6SM BKN007
     FM251400 12008KT P6SM OVC014
     FM251700 13007KT P6SM VCSH BKN035 PROB30 2521/2524 3SM TSRA BR
      BKN025CB=



000
FTUS42 KFFC 241938 AAA
TAFRYY
TAF AMD
KRYY 241938Z 2420/2518 14010G16KT P6SM BKN060
     FM250000 12006KT P6SM SCT060
     FM250800 12005KT P6SM BKN012
     FM251100 12005KT P6SM BKN007
     FM251400 13005KT P6SM OVC014=



000
FTUS42 KFFC 241938 AAA
TAFPDK
TAF AMD
KPDK 241938Z 2420/2518 14007G15KT P6SM BKN060
     FM250000 10006KT P6SM SCT060
     FM250800 10004KT P6SM BKN012
     FM251100 10004KT P6SM BKN007
     FM251400 11005KT P6SM OVC014=



000
FTUS42 KFFC 241937 AAA
TAFFTY
TAF AMD
KFTY 241937Z 2420/2518 13008G15KT P6SM BKN060
     FM250000 10008KT P6SM SCT060
     FM250800 10004KT P6SM BKN012
     FM251100 10004KT P6SM BKN007
     FM251400 11005KT P6SM OVC014=



000
FTUS42 KFFC 241934 AAA
TAFATL
TAF AMD
KATL 241934Z 2420/2524 14010G18KT P6SM BKN060
     FM250000 11010KT P6SM SCT060
     FM250800 12010KT P6SM BKN012
     FM251100 11009KT P6SM BKN007
     FM251400 12008KT P6SM OVC014
     FM251700 13007KT P6SM VCSH BKN035 PROB30 2521/2524 3SM TSRA BR
      BKN025CB=



000
FTUS42 KFFC 241934 AAA
TAFATL
TAF AMD
KATL 241934Z 2420/2524 14010G18KT P6SM BKN060
     FM250000 11010KT P6SM SCT060
     FM250800 12010KT P6SM BKN012
     FM251100 11009KT P6SM BKN007
     FM251400 12008KT P6SM OVC014
     FM251700 13007KT P6SM VCSH BKN035 PROB30 2521/2524 3SM TSRA BR
      BKN025CB=



000
FTUS42 KFFC 241735
TAFRYY
TAF
KRYY 241735Z 2418/2518 14012G18KT P6SM SCT050
     FM250000 12006KT P6SM FEW060
     FM250800 12005KT P6SM BKN012
     FM251100 12005KT P6SM BKN007
     FM251400 13005KT P6SM OVC014=



000
FTUS42 KFFC 241735
TAFAHN
TAF
KAHN 241735Z 2418/2518 15006KT P6SM SCT060
     FM250000 13005KT P6SM FEW080
     FM251000 09005KT P6SM BKN007
     FM251400 10005KT P6SM BKN013=



000
FTUS42 KFFC 241735
TAFFTY
TAF
KFTY 241735Z 2418/2518 14008G15KT P6SM SCT035
     FM242000 13008G15KT P6SM SCT050
     FM250000 10008KT P6SM FEW060
     FM250800 10004KT P6SM BKN012
     FM251100 10004KT P6SM BKN007
     FM251400 11005KT P6SM OVC014=



000
FTUS42 KFFC 241735
TAFCSG
TAF
KCSG 241735Z 2418/2518 14010G15KT P6SM BKN045
     FM250100 12010KT P6SM FEW080
     FM250700 12007KT P6SM BKN025
     FM250900 11006KT P6SM BKN007
     FM251400 14008KT P6SM OVC016=



000
FTUS42 KFFC 241735
TAFATL
TAF
KATL 241735Z 2418/2524 15010G18KT P6SM SCT040
     FM242000 14010G16KT P6SM SCT050
     FM250100 11010KT P6SM FEW060
     FM250800 12010KT P6SM BKN012
     FM251100 11009KT P6SM BKN007
     FM251400 12008KT P6SM OVC014
     FM251700 13007KT P6SM VCSH BKN035 PROB30 2521/2524 3SM TSRA BR
      BKN025CB=



000
FTUS42 KFFC 241735
TAFMCN
TAF
KMCN 241735Z 2418/2518 10010G15KT P6SM SCT060
     FM250000 11008KT P6SM FEW080
     FM250600 10005KT P6SM SCT015
     FM250800 09005KT P6SM BKN007
     FM251400 11006KT P6SM BKN030=



000
FTUS42 KFFC 241735
TAFPDK
TAF
KPDK 241735Z 2418/2518 14007G15KT P6SM SCT040
     FM242000 13008G16KT P6SM SCT050
     FM250000 10006KT P6SM FEW060
     FM250800 10004KT P6SM BKN012
     FM251100 10004KT P6SM BKN007
     FM251400 11005KT P6SM OVC014=



000
FTUS42 KFFC 241735
TAFATL
TAF
KATL 241735Z 2418/2524 15010G18KT P6SM SCT040
     FM242000 14010G16KT P6SM SCT050
     FM250100 11010KT P6SM FEW060
     FM250800 12010KT P6SM BKN012
     FM251100 11009KT P6SM BKN007
     FM251400 12008KT P6SM OVC014
     FM251700 13007KT P6SM VCSH BKN035 PROB30 2521/2524 3SM TSRA BR
      BKN025CB=



000
FTUS42 KFFC 241735
TAFPDK
TAF
KPDK 241735Z 2418/2518 14007G15KT P6SM SCT040
     FM242000 13008G16KT P6SM SCT050
     FM250000 10006KT P6SM FEW060
     FM250800 10004KT P6SM BKN012
     FM251100 10004KT P6SM BKN007
     FM251400 11005KT P6SM OVC014=



000
FTUS42 KFFC 241735
TAFMCN
TAF
KMCN 241735Z 2418/2518 10010G15KT P6SM SCT060
     FM250000 11008KT P6SM FEW080
     FM250600 10005KT P6SM SCT015
     FM250800 09005KT P6SM BKN007
     FM251400 11006KT P6SM BKN030=



000
FTUS42 KFFC 241735
TAFRYY
TAF
KRYY 241735Z 2418/2518 14012G18KT P6SM SCT050
     FM250000 12006KT P6SM FEW060
     FM250800 12005KT P6SM BKN012
     FM251100 12005KT P6SM BKN007
     FM251400 13005KT P6SM OVC014=



000
FTUS42 KFFC 241735
TAFAHN
TAF
KAHN 241735Z 2418/2518 15006KT P6SM SCT060
     FM250000 13005KT P6SM FEW080
     FM251000 09005KT P6SM BKN007
     FM251400 10005KT P6SM BKN013=



000
FTUS42 KFFC 241735
TAFCSG
TAF
KCSG 241735Z 2418/2518 14010G15KT P6SM BKN045
     FM250100 12010KT P6SM FEW080
     FM250700 12007KT P6SM BKN025
     FM250900 11006KT P6SM BKN007
     FM251400 14008KT P6SM OVC016=



000
FTUS42 KFFC 241735
TAFFTY
TAF
KFTY 241735Z 2418/2518 14008G15KT P6SM SCT035
     FM242000 13008G15KT P6SM SCT050
     FM250000 10008KT P6SM FEW060
     FM250800 10004KT P6SM BKN012
     FM251100 10004KT P6SM BKN007
     FM251400 11005KT P6SM OVC014=



000
FTUS42 KFFC 241545 AAC
TAFMCN
TAF AMD
KMCN 241545Z 2416/2512 12010G16KT P6SM SCT030 BKN050
     FM241900 11010G16KT P6SM BKN060
     FM242300 10008G13KT P6SM SCT050
     FM250700 13006KT P6SM BKN015
     FM250900 12004KT P6SM BKN009=



000
FTUS42 KFFC 241545 AAC
TAFMCN
TAF AMD
KMCN 241545Z 2416/2512 12010G16KT P6SM SCT030 BKN050
     FM241900 11010G16KT P6SM BKN060
     FM242300 10008G13KT P6SM SCT050
     FM250700 13006KT P6SM BKN015
     FM250900 12004KT P6SM BKN009=



000
FTUS42 KFFC 241544 AAA
TAFCSG
TAF AMD
KCSG 241544Z 2416/2512 15010G17KT P6SM BKN025
     FM241800 15010G17KT P6SM BKN040
     FM242200 11007KT P6SM SCT050
     FM250240 12010KT P6SM BKN080
     FM250700 13009G14KT P6SM BKN012
     FM250900 12006KT P6SM SCT008 BKN012=



000
FTUS42 KFFC 241544 AAA
TAFCSG
TAF AMD
KCSG 241544Z 2416/2512 15010G17KT P6SM BKN025
     FM241800 15010G17KT P6SM BKN040
     FM242200 11007KT P6SM SCT050
     FM250240 12010KT P6SM BKN080
     FM250700 13009G14KT P6SM BKN012
     FM250900 12006KT P6SM SCT008 BKN012=



000
FTUS42 KFFC 241543 AAC
TAFRYY
TAF AMD
KRYY 241543Z 2416/2512 14010G17KT P6SM SCT025 BKN035
      TEMPO 2416/2418 BKN025
     FM241900 13010G16KT P6SM SCT060
     FM250100 13010KT P6SM BKN080
     FM250800 14010KT P6SM SCT009 BKN012=



000
FTUS42 KFFC 241542 AAC
TAFPDK
TAF AMD
KPDK 241542Z 2416/2512 12006KT P6SM SCT025 BKN035
      TEMPO 2416/2418 BKN025
     FM242000 13010G16KT P6SM SCT060
     FM250100 13010KT P6SM FEW080
     FM250800 14010KT P6SM SCT009 BKN012=



000
FTUS42 KFFC 241542 AAC
TAFFTY
TAF AMD
KFTY 241542Z 2416/2512 14008KT P6SM SCT025 BKN045
      TEMPO 2416/2418 BKN025
     FM242000 13010G16KT P6SM SCT060
     FM250100 13010KT P6SM FEW080
     FM250800 14010KT P6SM SCT009 BKN012=



000
FTUS42 KFFC 241541 AAD
TAFATL
TAF AMD
KATL 241541Z 2416/2518 13008KT P6SM SCT025 BKN045
      TEMPO 2416/2418 BKN025
     FM241900 11012G19KT P6SM SCT060
     FM250100 11010KT P6SM FEW080
     FM250800 13010KT P6SM FEW008 BKN012
     FM251600 14007KT P6SM VCSH OVC012=



000
FTUS42 KFFC 241438 AAB
TAFRYY
TAF AMD
KRYY 241438Z 2415/2512 13007KT P6SM SCT020 BKN035
      TEMPO 2415/2416 BKN020
     FM241600 10008KT P6SM SCT050
     FM242000 13010G16KT P6SM SCT060
     FM250100 13010KT P6SM BKN080
     FM250800 14010KT P6SM SCT009 BKN012=



000
FTUS42 KFFC 241438 AAB
TAFRYY
TAF AMD
KRYY 241438Z 2415/2512 13007KT P6SM SCT020 BKN035
      TEMPO 2415/2416 BKN020
     FM241600 10008KT P6SM SCT050
     FM242000 13010G16KT P6SM SCT060
     FM250100 13010KT P6SM BKN080
     FM250800 14010KT P6SM SCT009 BKN012=



000
FTUS42 KFFC 241438 AAB
TAFPDK
TAF AMD
KPDK 241438Z 2415/2512 12006KT P6SM SCT020 BKN035
      TEMPO 2415/2416 BKN020
     FM241600 10008KT P6SM SCT050
     FM242000 13010G16KT P6SM SCT060
     FM250100 13010KT P6SM FEW080
     FM250800 14010KT P6SM SCT009 BKN012=



000
FTUS42 KFFC 241437 AAB
TAFFTY
TAF AMD
KFTY 241437Z 2415/2512 13006KT P6SM SCT020 BKN045
      TEMPO 2415/2416 BKN020
     FM241600 10008KT P6SM SCT050
     FM242000 13010G16KT P6SM SCT060
     FM250100 13010KT P6SM FEW080
     FM250800 14010KT P6SM SCT009 BKN012=



000
FTUS42 KFFC 241437 AAC
TAFATL
TAF AMD
KATL 241437Z 2415/2518 12008KT P6SM SCT020 BKN045
      TEMPO 2415/2416 BKN020
     FM241600 13009G14KT P6SM SCT050
     FM241900 11012G19KT P6SM SCT060
     FM250100 11010KT P6SM FEW080
     FM250800 13010KT P6SM FEW008 BKN012
     FM251600 14007KT P6SM VCSH OVC012=



000
FTUS42 KFFC 241437 AAB
TAFFTY
TAF AMD
KFTY 241437Z 2415/2512 13006KT P6SM SCT020 BKN045
      TEMPO 2415/2416 BKN020
     FM241600 10008KT P6SM SCT050
     FM242000 13010G16KT P6SM SCT060
     FM250100 13010KT P6SM FEW080
     FM250800 14010KT P6SM SCT009 BKN012=



000
FTUS42 KFFC 241342 AAB
TAFATL
TAF AMD
KATL 241342Z 2414/2518 12008KT P6SM FEW025 SCT045
      TEMPO 2414/2416 BKN040
     FM241600 13009G14KT P6SM SCT050
     FM241900 11012G19KT P6SM SCT060
     FM250100 11010KT P6SM FEW080
     FM250800 13010KT P6SM FEW008 BKN012
     FM251600 14007KT P6SM VCSH OVC012=



000
FTUS42 KFFC 241325 AAB
TAFMCN
TAF AMD
KMCN 241325Z 2413/2512 09006KT P6SM SCT040
     FM241600 10008G16KT P6SM SCT050
     FM242000 11008G13KT P6SM BKN060
     FM242300 10008G13KT P6SM SCT050
     FM250700 13006KT P6SM BKN015
     FM250900 12004KT P6SM BKN009=



000
FTUS42 KFFC 241324 AAA
TAFRYY
TAF AMD
KRYY 241324Z 2413/2512 13007KT P6SM SCT020 SCT045
      TEMPO 2413/2416 BKN045
     FM241600 10008KT P6SM SCT050
     FM242000 13010G16KT P6SM SCT060
     FM250100 13010KT P6SM BKN080
     FM250800 14010KT P6SM SCT009 BKN012=



000
FTUS42 KFFC 241324 AAA
TAFAHN
TAF AMD
KAHN 241324Z 2413/2512 09003KT P6SM SCT045
      TEMPO 2414/2416 BKN045
     FM241600 12006KT P6SM FEW050
     FM250700 13006KT P6SM BKN015
     FM250900 11004KT P6SM BKN009=



000
FTUS42 KFFC 241324 AAA
TAFAHN
TAF AMD
KAHN 241324Z 2413/2512 09003KT P6SM SCT045
      TEMPO 2414/2416 BKN045
     FM241600 12006KT P6SM FEW050
     FM250700 13006KT P6SM BKN015
     FM250900 11004KT P6SM BKN009=



000
FTUS42 KFFC 241324 AAA
TAFRYY
TAF AMD
KRYY 241324Z 2413/2512 13007KT P6SM SCT020 SCT045
      TEMPO 2413/2416 BKN045
     FM241600 10008KT P6SM SCT050
     FM242000 13010G16KT P6SM SCT060
     FM250100 13010KT P6SM BKN080
     FM250800 14010KT P6SM SCT009 BKN012=



000
FTUS42 KFFC 241323 AAA
TAFFTY
TAF AMD
KFTY 241323Z 2413/2512 13006KT P6SM FEW025 SCT045
      TEMPO 2413/2416 BKN040
     FM241600 10008KT P6SM SCT050
     FM242000 13010G16KT P6SM SCT060
     FM250100 13010KT P6SM FEW080
     FM250800 14010KT P6SM SCT009 BKN012=



000
FTUS42 KFFC 241323 AAA
TAFPDK
TAF AMD
KPDK 241323Z 2413/2512 12006KT P6SM FEW025 SCT045
      TEMPO 2413/2416 BKN045
     FM241600 10008KT P6SM SCT050
     FM242000 13010G16KT P6SM SCT060
     FM250100 13010KT P6SM FEW080
     FM250800 14010KT P6SM SCT009 BKN012=



000
FTUS42 KFFC 241322 AAA
TAFATL
TAF AMD
KATL 241322Z 2413/2518 12008KT P6SM FEW025 SCT045
      TEMPO 2413/2416 BKN040
     FM241600 13009G14KT P6SM SCT050
     FM241900 11012G19KT P6SM SCT060
     FM250100 11010KT P6SM FEW080
     FM250800 13010KT P6SM FEW008 BKN012
     FM251600 14007KT P6SM VCSH OVC012=



000
FTUS42 KFFC 241250 AAA
TAFMCN
TAF AMD
KMCN 241250Z 2413/2512 09006KT P6SM SCT025 SCT040
      TEMPO 2413/2415 BKN025
     FM241600 10008G16KT P6SM SCT040
     FM242000 11008G13KT P6SM BKN050
     FM242300 10008G13KT P6SM SCT050
     FM250700 13006KT P6SM BKN015
     FM250900 12004KT P6SM BKN009=



000
FTUS42 KFFC 241250 AAA
TAFMCN
TAF AMD
KMCN 241250Z 2413/2512 09006KT P6SM SCT025 SCT040
      TEMPO 2413/2415 BKN025
     FM241600 10008G16KT P6SM SCT040
     FM242000 11008G13KT P6SM BKN050
     FM242300 10008G13KT P6SM SCT050
     FM250700 13006KT P6SM BKN015
     FM250900 12004KT P6SM BKN009=



000
FTUS42 KFFC 241124 CCA
TAFCSG
TAF COR
KCSG 241124Z 2412/2512 10007KT P6SM BKN012
     FM241500 11007KT P6SM SCT025
     FM241700 12007KT P6SM BKN040
     FM242200 11007KT P6SM SCT050
     FM250240 12010KT P6SM BKN080
     FM250700 13009G14KT P6SM BKN012
     FM250900 12006KT P6SM SCT008 BKN012=



000
FTUS42 KFFC 241124 CCA
TAFMCN
TAF COR
KMCN 241124Z 2412/2512 09006KT P6SM BKN025
     FM241600 10008G16KT P6SM SCT040
     FM242000 11008G13KT P6SM BKN050
     FM242300 10008G13KT P6SM SCT050
     FM250700 13006KT P6SM BKN015
     FM250900 12004KT P6SM BKN009=



000
FTUS42 KFFC 241123
TAFRYY
TAF
KRYY 241123Z 2412/2512 13007KT P6SM SCT020
     FM241600 10008KT P6SM SCT035
     FM242000 13010G16KT P6SM SCT050
     FM250100 13010KT P6SM BKN080
     FM250800 14010KT P6SM SCT009 BKN012=



000
FTUS42 KFFC 241123
TAFFTY
TAF
KFTY 241123Z 2412/2512 13006KT P6SM SCT020
     FM241600 10008KT P6SM SCT035
     FM242000 13010G16KT P6SM SCT050
     FM250100 13010KT P6SM FEW080
     FM250800 14010KT P6SM SCT009 BKN012=



000
FTUS42 KFFC 241123
TAFPDK
TAF
KPDK 241123Z 2412/2512 12006KT P6SM SCT020
     FM241600 10008KT P6SM SCT035
     FM242000 13010G16KT P6SM SCT050
     FM250100 13010KT P6SM FEW080
     FM250800 14010KT P6SM SCT009 BKN012=



000
FTUS42 KFFC 241123
TAFMCN
TAF
KMCN 241123Z 2412/2512 09006KT P6SM SCT020
     FM241600 10008G16KT P6SM SCT040
     FM242000 11008G13KT P6SM BKN050
     FM242300 10008G13KT P6SM SCT050
     FM250700 13006KT P6SM BKN015
     FM250900 12004KT P6SM BKN009=



000
FTUS42 KFFC 241123
TAFATL
TAF
KATL 241123Z 2412/2518 12005KT P6SM SCT020
     FM241500 13009G14KT P6SM SCT035
     FM241900 11012G19KT P6SM SCT050
     FM250100 11010KT P6SM FEW080
     FM250800 13010KT P6SM FEW008 BKN012
     FM251600 14007KT P6SM VCSH OVC012=



000
FTUS42 KFFC 241123
TAFCSG
TAF
KCSG 241123Z 2412/2512 10007KT P6SM SCT012
     FM241500 11007KT P6SM SCT025
     FM241700 12007KT P6SM BKN040
     FM242200 11007KT P6SM SCT050
     FM250240 12010KT P6SM BKN080
     FM250700 13009G14KT P6SM BKN012
     FM250900 12006KT P6SM SCT008 BKN012=



000
FTUS42 KFFC 241123
TAFAHN
TAF
KAHN 241123Z 2412/2512 09003KT P6SM FEW250
     FM241600 12006KT P6SM FEW045
     FM250700 13006KT P6SM BKN015
     FM250900 11004KT P6SM BKN009=



000
FTUS42 KFFC 240930 AAB
TAFATL
TAF AMD
KATL 240930Z 2410/2512 12007KT P6SM SCT250
     FM241100 12005KT P6SM SCT020
     FM241500 13009G14KT P6SM SCT035
     FM241900 11012G19KT P6SM SCT050
     FM250100 11010KT P6SM FEW080
     FM250800 13009G14KT P6SM BKN012=



000
FTUS42 KFFC 240730 AAA
TAFATL
TAF AMD
KATL 240730Z 2408/2512 14007KT P6SM SCT250
     FM240900 12005KT P6SM SCT020
     FM241500 13009G14KT P6SM SCT035
     FM241900 11012G19KT P6SM SCT050
     FM250100 11010KT P6SM FEW080
     FM250800 13009G14KT P6SM BKN012=



000
FTUS42 KFFC 240520
TAFCSG
TAF
KCSG 240520Z 2406/2506 11007KT P6SM FEW250
     FM240900 10007KT P6SM SCT012
     FM241500 11007KT P6SM SCT025
     FM241700 12007KT P6SM BKN040
     FM242200 11007KT P6SM SCT050
     FM250240 12010KT P6SM BKN080=



000
FTUS42 KFFC 240520
TAFAHN
TAF
KAHN 240520Z 2406/2506 09003KT P6SM FEW250
     FM241600 12006KT P6SM FEW045=



000
FTUS42 KFFC 240520
TAFMCN
TAF
KMCN 240520Z 2406/2506 13007KT P6SM FEW250
     FM240900 09006KT P6SM SCT020
     FM241600 10008G16KT P6SM SCT040
     FM242000 11008G13KT P6SM BKN050
     FM242300 10008G13KT P6SM SCT050=



000
FTUS42 KFFC 240520
TAFPDK
TAF
KPDK 240520Z 2406/2506 10005KT P6SM SCT250
     FM240900 12006KT P6SM SCT020
     FM241600 10008KT P6SM SCT035
     FM242000 13010G16KT P6SM SCT050
     FM250100 13010KT P6SM FEW080=



000
FTUS42 KFFC 240520
TAFFTY
TAF
KFTY 240520Z 2406/2506 11005KT P6SM SCT250
     FM240900 13006KT P6SM SCT020
     FM241600 10008KT P6SM SCT035
     FM242000 13010G16KT P6SM SCT050
     FM250100 13010KT P6SM FEW080=



000
FTUS42 KFFC 240520
TAFRYY
TAF
KRYY 240520Z 2406/2506 11005KT P6SM SCT230
     FM240900 13007KT P6SM SCT020
     FM241600 10008KT P6SM SCT035
     FM242000 13010G16KT P6SM SCT050
     FM250100 13010KT P6SM BKN080
      AMD NOT SKED TIL 241200=



000
FTUS42 KFFC 240520
TAFATL
TAF
KATL 240520Z 2406/2512 11005KT P6SM SCT250
     FM240900 12005KT P6SM SCT020
     FM241500 13009G14KT P6SM SCT035
     FM241900 11012G19KT P6SM SCT050
     FM250100 11010KT P6SM FEW080
     FM250800 13009G14KT P6SM BKN012=



000
FTUS42 KFFC 240342 AAB
TAFATL
TAF AMD
KATL 240342Z 2404/2506 10007KT P6SM FEW250
     FM241200 11008KT P6SM SCT020
     FM241600 11009G16KT P6SM SCT035
     FM241900 11012G19KT P6SM SCT050
     FM250100 11010KT P6SM FEW050=



000
FTUS42 KFFC 240147 AAA
TAFATL
TAF AMD
KATL 240147Z 2402/2506 10007KT P6SM FEW250
     FM241200 11008KT P6SM SCT020
     FM241600 11009G16KT P6SM SCT035
     FM241900 11012G19KT P6SM SCT050
     FM250100 11010KT P6SM FEW050=



000
FTUS42 KFFC 232325
TAFAHN
TAF
KAHN 232325Z 2400/2424 10008KT P6SM SKC
     FM240100 09005KT P6SM SKC
     FM241600 11008KT P6SM FEW035=



000
FTUS42 KFFC 232325
TAFCSG
TAF
KCSG 232325Z 2400/2424 12010G16KT P6SM SKC
     FM240200 10010KT P6SM FEW250
     FM241200 10010KT P6SM SCT015
     FM241600 12010G16KT P6SM SCT035=



000
FTUS42 KFFC 232325
TAFRYY
TAF
KRYY 232325Z 2400/2424 14008KT P6SM SKC
     FM240100 11004KT P6SM SKC
     FM241200 11006KT P6SM SCT020
     FM241600 10008KT P6SM SCT035
     FM241900 11010G16KT P6SM SCT050
      AMD NOT SKED 2404/2412=



000
FTUS42 KFFC 232325
TAFPDK
TAF
KPDK 232325Z 2400/2424 13005KT P6SM SKC
     FM241200 11006KT P6SM SCT020
     FM241600 10008KT P6SM SCT035
     FM241900 11010G16KT P6SM SCT050=



000
FTUS42 KFFC 232325
TAFMCN
TAF
KMCN 232325Z 2400/2424 09006KT P6SM SKC
     FM241200 07006KT P6SM SCT015
     FM241600 10008G16KT P6SM SCT040=



000
FTUS42 KFFC 232325
TAFATL
TAF
KATL 232325Z 2400/2506 11008KT P6SM FEW250
     FM241200 11008KT P6SM SCT020
     FM241600 11009G16KT P6SM SCT035
     FM241900 11012G19KT P6SM SCT050
     FM250100 11010KT P6SM FEW050=



000
FTUS42 KFFC 232325
TAFFTY
TAF
KFTY 232325Z 2400/2424 13008KT P6SM SKC
     FM240100 11004KT P6SM SKC
     FM241200 11006KT P6SM SCT020
     FM241600 10008KT P6SM SCT035
     FM241900 11010G16KT P6SM SCT050=



000
FTUS42 KFFC 232130 AAB
TAFATL
TAF AMD
KATL 232130Z 2322/2424 12010G16KT P6SM FEW250
     FM240100 10007KT P6SM SKC
     FM241600 11009G15KT P6SM SCT035
     FM241900 11012G19KT P6SM SCT050=



000
FTUS42 KFFC 232130 AAB
TAFATL
TAF AMD
KATL 232130Z 2322/2424 12010G16KT P6SM FEW250
     FM240100 10007KT P6SM SKC
     FM241600 11009G15KT P6SM SCT035
     FM241900 11012G19KT P6SM SCT050=



000
FTUS42 KFFC 231939 AAA
TAFATL
TAF AMD
KATL 231939Z 2320/2424 12011G18KT P6SM SKC
     FM240100 10007KT P6SM SKC
     FM241600 11009G15KT P6SM SCT035
     FM241900 11012G19KT P6SM SCT050=



000
FTUS42 KFFC 231725
TAFCSG
TAF
KCSG 231725Z 2318/2418 12010G16KT P6SM FEW250
     FM241600 12009G15KT P6SM SCT035=



000
FTUS42 KFFC 231725
TAFAHN
TAF
KAHN 231725Z 2318/2418 11008G16KT P6SM SKC
     FM240100 09004KT P6SM SKC
     FM241600 10007G15KT P6SM FEW035=



000
FTUS42 KFFC 231725
TAFMCN
TAF
KMCN 231725Z 2318/2418 10009G14KT P6SM SKC
     FM240100 09005KT P6SM SKC
     FM241600 10008G13KT P6SM SCT035=



000
FTUS42 KFFC 231725
TAFFTY
TAF
KFTY 231725Z 2318/2418 13010G16KT P6SM SKC
     FM240100 00000KT P6SM SKC
     FM241500 10006KT P6SM SCT035=



000
FTUS42 KFFC 231725
TAFATL
TAF
KATL 231725Z 2318/2424 12011G18KT P6SM SKC
     FM240100 10007KT P6SM SKC
     FM241600 11009G15KT P6SM SCT035
     FM241900 11012G19KT P6SM SCT050=



000
FTUS42 KFFC 231725
TAFRYY
TAF
KRYY 231725Z 2318/2418 12010G18KT P6SM SKC
     FM240100 00000KT P6SM SKC
     FM241400 11006KT P6SM SCT035=



000
FTUS42 KFFC 231725
TAFPDK
TAF
KPDK 231725Z 2318/2418 12009G17KT P6SM SKC
     FM240100 00000KT P6SM SKC
     FM241500 11006KT P6SM SCT035=



000
FTUS42 KFFC 231725
TAFCSG
TAF
KCSG 231725Z 2318/2418 12010G16KT P6SM FEW250
     FM241600 12009G15KT P6SM SCT035=



000
FTUS42 KFFC 231725
TAFFTY
TAF
KFTY 231725Z 2318/2418 13010G16KT P6SM SKC
     FM240100 00000KT P6SM SKC
     FM241500 10006KT P6SM SCT035=



000
FTUS42 KFFC 231725
TAFATL
TAF
KATL 231725Z 2318/2424 12011G18KT P6SM SKC
     FM240100 10007KT P6SM SKC
     FM241600 11009G15KT P6SM SCT035
     FM241900 11012G19KT P6SM SCT050=



000
FTUS42 KFFC 231725
TAFMCN
TAF
KMCN 231725Z 2318/2418 10009G14KT P6SM SKC
     FM240100 09005KT P6SM SKC
     FM241600 10008G13KT P6SM SCT035=



000
FTUS42 KFFC 231725
TAFPDK
TAF
KPDK 231725Z 2318/2418 12009G17KT P6SM SKC
     FM240100 00000KT P6SM SKC
     FM241500 11006KT P6SM SCT035=



000
FTUS42 KFFC 231725
TAFAHN
TAF
KAHN 231725Z 2318/2418 11008G16KT P6SM SKC
     FM240100 09004KT P6SM SKC
     FM241600 10007G15KT P6SM FEW035=



000
FTUS42 KFFC 231725
TAFRYY
TAF
KRYY 231725Z 2318/2418 12010G18KT P6SM SKC
     FM240100 00000KT P6SM SKC
     FM241400 11006KT P6SM SCT035=



000
FTUS42 KFFC 231603 AAA
TAFRYY
TAF AMD
KRYY 231603Z 2316/2412 11010G17KT P6SM FEW045
     FM231900 11011G18KT P6SM SKC
     FM240300 10005KT P6SM SKC=



000
FTUS42 KFFC 231602 AAA
TAFPDK
TAF AMD
KPDK 231602Z 2316/2412 11010G17KT P6SM FEW045
     FM231900 11012G18KT P6SM SKC
     FM240200 09006KT P6SM SKC=



000
FTUS42 KFFC 231602 AAA
TAFFTY
TAF AMD
KFTY 231602Z 2316/2412 13010G18KT P6SM FEW045
     FM231900 12012G18KT P6SM SKC
     FM240200 10006KT P6SM SKC=



000
FTUS42 KFFC 231601 AAA
TAFCSG
TAF AMD
KCSG 231601Z 2316/2412 11012G18KT P6SM FEW045
     FM231900 11012G18KT P6SM SKC
     FM240100 09005KT P6SM SKC=



000
FTUS42 KFFC 231600 AAA
TAFMCN
TAF AMD
KMCN 231600Z 2316/2412 10012G18KT P6SM FEW045
     FM231900 10012G18KT P6SM SKC
     FM240200 10005KT P6SM SKC=



000
FTUS42 KFFC 231551 AAB
TAFATL
TAF AMD
KATL 231551Z 2316/2418 13010G16KT P6SM FEW040
     FM231900 12010G16KT P6SM SKC
     FM240100 10006KT P6SM SKC
     FM241000 13006KT P6SM SKC
     FM241500 12010G15KT P6SM SCT040=



000
FTUS42 KFFC 231351 AAA
TAFATL
TAF AMD
KATL 231351Z 2314/2418 11007KT P6SM FEW250
     FM231700 11010G16KT P6SM FEW045
     FM231900 11010G16KT P6SM SKC
     FM240100 10006KT P6SM SKC
     FM241000 13006KT P6SM SKC
     FM241500 12010G15KT P6SM SCT040=



000
FTUS42 KFFC 231351 AAA
TAFATL
TAF AMD
KATL 231351Z 2314/2418 11007KT P6SM FEW250
     FM231700 11010G16KT P6SM FEW045
     FM231900 11010G16KT P6SM SKC
     FM240100 10006KT P6SM SKC
     FM241000 13006KT P6SM SKC
     FM241500 12010G15KT P6SM SCT040=



000
FTUS42 KFFC 231128
TAFPDK
TAF
KPDK 231128Z 2312/2412 00000KT P6SM SKC
     FM231400 11010KT P6SM FEW045
     FM240200 09006KT P6SM SKC=



000
FTUS42 KFFC 231128
TAFCSG
TAF
KCSG 231128Z 2312/2412 05004KT P6SM SKC
     FM231400 10007KT P6SM FEW045
     FM240100 09005KT P6SM SKC=



000
FTUS42 KFFC 231128
TAFATL
TAF
KATL 231128Z 2312/2418 08004KT P6SM SKC
     FM231400 11007KT P6SM FEW250
     FM231700 11010G16KT P6SM FEW045
     FM240100 10006KT P6SM SKC
     FM241000 13006KT P6SM SKC
     FM241500 12010G15KT P6SM SCT040=



000
FTUS42 KFFC 231128
TAFAHN
TAF
KAHN 231128Z 2312/2412 00000KT P6SM SKC
     FM231500 10010KT P6SM FEW045
     FM240200 10005KT P6SM SKC=



000
FTUS42 KFFC 231128
TAFFTY
TAF
KFTY 231128Z 2312/2412 00000KT P6SM SKC
     FM231400 11010KT P6SM FEW045
     FM240200 10006KT P6SM SKC=



000
FTUS42 KFFC 231128
TAFMCN
TAF
KMCN 231128Z 2312/2412 00000KT P6SM SKC
     FM231400 09007KT P6SM FEW045
     FM231700 10010KT P6SM FEW045
     FM240200 10005KT P6SM SKC=



000
FTUS42 KFFC 231128
TAFRYY
TAF
KRYY 231128Z 2312/2412 00000KT P6SM SKC
     FM231400 11010KT P6SM FEW045
     FM240300 10005KT P6SM SKC=



000
FTUS42 KFFC 231128
TAFAHN
TAF
KAHN 231128Z 2312/2412 00000KT P6SM SKC
     FM231500 10010KT P6SM FEW045
     FM240200 10005KT P6SM SKC=



000
FTUS42 KFFC 231128
TAFRYY
TAF
KRYY 231128Z 2312/2412 00000KT P6SM SKC
     FM231400 11010KT P6SM FEW045
     FM240300 10005KT P6SM SKC=



000
FTUS42 KFFC 231128
TAFPDK
TAF
KPDK 231128Z 2312/2412 00000KT P6SM SKC
     FM231400 11010KT P6SM FEW045
     FM240200 09006KT P6SM SKC=



000
FTUS42 KFFC 231128
TAFCSG
TAF
KCSG 231128Z 2312/2412 05004KT P6SM SKC
     FM231400 10007KT P6SM FEW045
     FM240100 09005KT P6SM SKC=



000
FTUS42 KFFC 231128
TAFFTY
TAF
KFTY 231128Z 2312/2412 00000KT P6SM SKC
     FM231400 11010KT P6SM FEW045
     FM240200 10006KT P6SM SKC=



000
FTUS42 KFFC 231128
TAFATL
TAF
KATL 231128Z 2312/2418 08004KT P6SM SKC
     FM231400 11007KT P6SM FEW250
     FM231700 11010G16KT P6SM FEW045
     FM240100 10006KT P6SM SKC
     FM241000 13006KT P6SM SKC
     FM241500 12010G15KT P6SM SCT040=



000
FTUS42 KFFC 231128
TAFMCN
TAF
KMCN 231128Z 2312/2412 00000KT P6SM SKC
     FM231400 09007KT P6SM FEW045
     FM231700 10010KT P6SM FEW045
     FM240200 10005KT P6SM SKC=



000
FTUS42 KFFC 230936 AAB
TAFATL
TAF AMD
KATL 230936Z 2310/2412 08004KT P6SM SKC
     FM231400 11007KT P6SM FEW250
     FM231700 11010G16KT P6SM FEW045
     FM240100 10006KT P6SM SKC
     FM241000 13006KT P6SM SKC=



000
FTUS42 KFFC 230730 AAA
TAFATL
TAF AMD
KATL 230730Z 2308/2412 09003KT P6SM SKC
     FM231400 11007KT P6SM FEW250
     FM231700 11010G16KT P6SM FEW045
     FM240100 10006KT P6SM SKC
     FM241000 13006KT P6SM SKC=



    US Dept of Commerce
    National Oceanic and Atmospheric Administration
    National Weather Service
    1325 East West Highway
    Silver Spring, MD 20910
    Page Author: NWS Internet Services Team
Disclaimer
Information Quality
Credits
Glossary
Privacy Policy
Freedom of Information Act (FOIA)
About Us
Career Opportunities